Time;durP1;ratioP1;P1;durP2;ratioP2;P2;SDS_P1;SDS_P2;PMS_P1;PMS_P2;Temp;Humidity;BMP_temperature;BMP_pressure;BME280_temperature;BME280_humidity;BME280_pressure;Samples;Min_cycle;Max_cycle;Signal;HPM_P1;HPM_P2
2021/01/13 00:00:34;;;;;;;4.40;1.13;;;;;;;;;;4393168;32;20201;-84
2021/01/13 00:02:59;;;;;;;7.27;1.37;;;;;;;;;;4393006;32;20188;-84
2021/01/13 00:05:24;;;;;;;8.97;1.63;;;;;;;;;;4392940;32;20646;-84
2021/01/13 00:07:50;;;;;;;5.23;1.70;;;;;;;;;;4393376;32;20646;-84
2021/01/13 00:13:10;;;;;;;10.40;1.37;;;;;;;;;;4365387;32;20177;-84
2021/01/13 00:15:36;;;;;;;6.97;2.13;;;;;;;;;;4393069;32;20166;-84
2021/01/13 00:18:02;;;;;;;10.77;1.70;;;;;;;;;;4392952;32;20165;-84
2021/01/13 00:20:32;;;;;;;8.23;1.27;;;;;;;;;;4393327;32;20154;-85
2021/01/13 00:23:00;;;;;;;8.37;1.23;;;;;;;;;;4392919;32;20188;-84
2021/01/13 00:25:33;;;;;;;13.37;1.30;;;;;;;;;;4392608;32;20216;-85
2021/01/13 00:28:03;;;;;;;4.33;1.33;;;;;;;;;;4393684;32;20174;-85
2021/01/13 00:30:29;;;;;;;10.17;1.27;;;;;;;;;;4392986;32;20162;-85
2021/01/13 00:32:56;;;;;;;4.87;1.30;;;;;;;;;;4393243;32;20200;-85
2021/01/13 00:35:30;;;;;;;9.70;1.27;;;;;;;;;;4393335;32;20233;-85
2021/01/13 00:37:55;;;;;;;6.53;1.17;;;;;;;;;;4394067;32;20193;-84
2021/01/13 00:40:20;;;;;;;7.33;1.20;;;;;;;;;;4393134;32;20579;-85
2021/01/13 00:42:47;;;;;;;4.50;1.10;;;;;;;;;;4394027;32;20162;-85
2021/01/13 00:45:16;;;;;;;5.33;1.00;;;;;;;;;;4392722;32;20228;-85
2021/01/13 00:47:42;;;;;;;7.67;1.27;;;;;;;;;;4393202;32;20291;-85
2021/01/13 00:50:08;;;;;;;4.77;1.17;;;;;;;;;;4393111;32;20592;-85
2021/01/13 00:52:33;;;;;;;11.87;2.13;;;;;;;;;;4393873;32;20215;-86
2021/01/13 00:55:05;;;;;;;8.63;1.80;;;;;;;;;;4393009;32;20189;-86
2021/01/13 00:57:30;;;;;;;10.33;1.70;;;;;;;;;;4393402;32;20176;-87
2021/01/13 00:59:55;;;;;;;8.57;1.67;;;;;;;;;;4393150;32;20533;-87
2021/01/13 01:02:21;;;;;;;11.70;1.53;;;;;;;;;;4393008;32;20547;-86
2021/01/13 01:04:46;;;;;;;4.67;1.00;;;;;;;;;;4392913;32;20165;-87
2021/01/13 01:07:14;;;;;;;10.80;1.63;;;;;;;;;;4396331;32;20173;-86
2021/01/13 01:09:40;;;;;;;6.23;0.97;;;;;;;;;;4397844;32;20185;-86
2021/01/13 01:12:16;;;;;;;4.70;1.00;;;;;;;;;;4398278;32;20259;-86
2021/01/13 01:14:41;;;;;;;7.43;0.97;;;;;;;;;;4399101;32;20200;-86
2021/01/13 01:17:12;;;;;;;10.40;1.20;;;;;;;;;;4398352;32;20188;-86
2021/01/13 01:19:38;;;;;;;6.37;1.00;;;;;;;;;;4398056;32;20184;-86
2021/01/13 01:22:04;;;;;;;7.67;1.20;;;;;;;;;;4397998;32;20157;-86
2021/01/13 01:27:53;;;;;;;4.80;1.07;;;;;;;;;;4411214;32;20247;-86
2021/01/13 01:30:25;;;;;;;7.47;1.17;;;;;;;;;;4383087;32;20244;-86
2021/01/13 01:33:00;;;;;;;;;;;;;;;;;;;;;
2021/01/13 01:35:26;;;;;;;10.27;1.23;;;;;;;;;;4393291;32;20166;-86
2021/01/13 01:38:21;;;;;;;8.13;1.00;;;;;;;;;;4383195;32;20181;-86
2021/01/13 01:44:00;;;;;;;6.93;1.40;;;;;;;;;;4387303;32;20230;-86
2021/01/13 01:46:25;;;;;;;6.93;1.10;;;;;;;;;;4383348;32;20178;-86
2021/01/13 01:48:54;;;;;;;6.30;1.20;;;;;;;;;;4396924;32;20206;-86
2021/01/13 01:51:30;;;;;;;7.70;1.00;;;;;;;;;;4382551;32;20639;-86
2021/01/13 01:54:07;;;;;;;6.17;0.90;;;;;;;;;;4383593;32;20197;-86
2021/01/13 01:56:40;;;;;;;4.43;0.90;;;;;;;;;;4383265;32;20237;-86
2021/01/13 01:59:12;;;;;;;4.53;0.77;;;;;;;;;;4382482;32;20267;-86
2021/01/13 02:01:37;;;;;;;5.73;0.90;;;;;;;;;;4382777;32;20162;-86
2021/01/13 02:04:07;;;;;;;4.57;0.90;;;;;;;;;;4382618;32;20231;-86
2021/01/13 02:06:56;;;;;;;7.10;1.10;;;;;;;;;;4383062;32;20197;-86
2021/01/13 02:09:26;;;;;;;4.40;1.00;;;;;;;;;;4396534;32;20202;-86
2021/01/13 02:11:53;;;;;;;5.27;1.03;;;;;;;;;;4382680;32;20533;-86
2021/01/13 02:14:19;;;;;;;9.20;1.17;;;;;;;;;;4381843;32;20197;-86
2021/01/13 02:16:49;;;;;;;5.07;0.90;;;;;;;;;;4395595;32;20146;-85
2021/01/13 02:19:48;;;;;;;4.30;1.40;;;;;;;;;;4379009;32;20231;-85
2021/01/13 02:22:27;;;;;;;7.90;1.13;;;;;;;;;;4380040;32;20231;-85
2021/01/13 02:25:11;;;;;;;7.57;1.50;;;;;;;;;;4379629;32;20161;-86
2021/01/13 02:27:58;;;;;;;9.13;1.30;;;;;;;;;;4379947;32;20582;-86
2021/01/13 02:30:25;;;;;;;7.53;1.63;;;;;;;;;;4393955;32;20171;-85
2021/01/13 02:32:54;;;;;;;9.57;1.70;;;;;;;;;;4394063;32;20196;-86
2021/01/13 02:35:26;;;;;;;9.53;1.50;;;;;;;;;;4394875;32;20217;-86
2021/01/13 02:40:59;;;;;;;8.30;1.33;;;;;;;;;;4408482;32;20184;-86
2021/01/13 02:43:27;;;;;;;5.87;1.47;;;;;;;;;;4394832;32;20166;-85
2021/01/13 02:45:57;;;;;;;7.23;1.80;;;;;;;;;;4394234;32;20189;-85
2021/01/13 02:48:22;;;;;;;10.13;2.00;;;;;;;;;;4407868;32;20149;-85
2021/01/13 02:50:57;;;;;;;7.53;1.77;;;;;;;;;;4394467;32;20166;-86
2021/01/13 02:53:25;;;;;;;8.60;1.53;;;;;;;;;;4394293;32;20169;-85
2021/01/13 02:56:01;;;;;;;6.87;1.40;;;;;;;;;;4393372;32;20192;-85
2021/01/13 02:58:36;;;;;;;7.33;1.40;;;;;;;;;;4393834;32;20173;-85
2021/01/13 03:01:12;;;;;;;8.60;1.40;;;;;;;;;;4394094;32;20180;-85
2021/01/13 03:03:38;;;;;;;6.03;1.17;;;;;;;;;;4394507;32;20184;-84
2021/01/13 03:06:07;;;;;;;11.23;1.70;;;;;;;;;;4393827;32;20162;-84
2021/01/13 03:08:51;;;;;;;7.63;1.60;;;;;;;;;;4393885;32;20185;-85
2021/01/13 03:11:21;;;;;;;9.27;1.60;;;;;;;;;;4393566;32;20197;-85
2021/01/13 03:13:47;;;;;;;8.70;1.70;;;;;;;;;;4407925;32;20178;-84
2021/01/13 03:16:16;;;;;;;5.77;1.20;;;;;;;;;;4393327;32;20350;-84
2021/01/13 03:18:47;;;;;;;6.97;1.43;;;;;;;;;;4393676;32;20161;-84
2021/01/13 03:21:18;;;;;;;9.43;1.70;;;;;;;;;;4393740;32;20158;-84
2021/01/13 03:23:52;;;;;;;13.97;1.90;;;;;;;;;;4393192;32;20174;-84
2021/01/13 03:26:24;;;;;;;11.40;1.63;;;;;;;;;;4393302;32;20162;-85
2021/01/13 03:28:50;;;;;;;10.43;1.57;;;;;;;;;;4393581;32;20166;-84
2021/01/13 03:31:30;;;;;;;7.27;1.60;;;;;;;;;;4393307;32;20236;-84
2021/01/13 03:34:21;;;;;;;12.10;1.50;;;;;;;;;;4394342;32;20282;-84
2021/01/13 03:37:09;;;;;;;;;;;;;;;;;;;;;
2021/01/13 03:39:43;;;;;;;15.17;1.73;;;;;;;;;;4407699;32;20438;-85
2021/01/13 03:42:29;;;;;;;;;;;;;;;;;;;;;
2021/01/13 03:44:59;;;;;;;10.40;1.97;;;;;;;;;;4394042;32;20352;-84
2021/01/13 03:47:54;;;;;;;10.60;1.53;;;;;;;;;;4408165;32;20138;-84
2021/01/13 03:57:07;;;;;;;9.07;1.80;;;;;;;;;;4345411;33;20158;-83
2021/01/13 03:59:53;;;;;;;8.27;1.60;;;;;;;;;;4341739;33;20231;-84
2021/01/13 04:05:40;;;;;;;13.43;1.90;;;;;;;;;;4345036;33;20160;-84
2021/01/13 04:08:22;;;;;;;9.57;1.60;;;;;;;;;;4335904;33;20265;-84
2021/01/13 04:10:47;;;;;;;7.73;1.53;;;;;;;;;;4360933;32;20238;-84
2021/01/13 04:13:31;;;;;;;10.87;1.30;;;;;;;;;;4392605;32;20173;-84
2021/01/13 04:16:07;;;;;;;10.97;1.40;;;;;;;;;;4392736;32;20170;-84
2021/01/13 04:18:42;;;;;;;7.00;1.50;;;;;;;;;;4407014;32;20172;-84
2021/01/13 04:21:09;;;;;;;11.40;1.83;;;;;;;;;;4393171;32;20161;-84
2021/01/13 04:23:35;;;;;;;14.47;1.80;;;;;;;;;;4392630;32;20192;-84
2021/01/13 04:26:00;;;;;;;7.70;1.50;;;;;;;;;;4406224;32;20481;-84
2021/01/13 04:28:29;;;;;;;9.50;1.50;;;;;;;;;;4392128;32;20252;-83
2021/01/13 04:30:55;;;;;;;6.23;1.40;;;;;;;;;;4406324;32;20513;-85
2021/01/13 04:33:26;;;;;;;10.47;1.60;;;;;;;;;;4392065;32;20192;-84
2021/01/13 04:35:59;;;;;;;10.27;1.50;;;;;;;;;;4393181;32;20252;-84
2021/01/13 04:38:29;;;;;;;11.30;1.60;;;;;;;;;;4385708;32;20549;-84
2021/01/13 04:41:13;;;;;;;10.63;1.60;;;;;;;;;;4377399;32;20556;-83
2021/01/13 04:43:52;;;;;;;16.23;1.70;;;;;;;;;;4378289;32;20219;-83
2021/01/13 04:46:36;;;;;;;8.63;1.77;;;;;;;;;;4391622;32;20146;-83
2021/01/13 04:49:08;;;;;;;11.93;1.30;;;;;;;;;;4377320;32;20216;-83
2021/01/13 04:51:35;;;;;;;12.50;1.47;;;;;;;;;;4391370;32;20177;-84
2021/01/13 04:54:09;;;;;;;6.03;1.33;;;;;;;;;;4377431;32;20166;-84
2021/01/13 04:56:41;;;;;;;11.80;1.57;;;;;;;;;;4391494;32;20138;-84
2021/01/13 04:59:31;;;;;;;9.93;1.93;;;;;;;;;;4378198;32;20205;-85
2021/01/13 05:02:04;;;;;;;6.37;1.40;;;;;;;;;;4377397;32;20220;-85
2021/01/13 05:04:56;;;;;;;8.57;1.50;;;;;;;;;;4391102;32;20142;-85
2021/01/13 05:07:40;;;;;;;13.90;1.97;;;;;;;;;;4378027;32;20220;-84
2021/01/13 05:13:31;;;;;;;9.10;1.50;;;;;;;;;;4344283;33;20233;-84
2021/01/13 05:16:10;;;;;;;5.43;1.57;;;;;;;;;;4377516;32;20220;-84
2021/01/13 05:18:42;;;;;;;11.20;1.60;;;;;;;;;;4376796;32;20311;-84
2021/01/13 05:21:15;;;;;;;10.77;1.43;;;;;;;;;;4376920;32;20179;-85
2021/01/13 05:23:43;;;;;;;5.73;1.27;;;;;;;;;;4377423;32;20196;-84
2021/01/13 05:26:15;;;;;;;8.63;1.73;;;;;;;;;;4376955;32;20174;-84
2021/01/13 05:28:56;;;;;;;8.87;1.77;;;;;;;;;;4377003;32;20182;-83
2021/01/13 05:37:52;;;;;;;11.40;1.70;;;;;;;;;;4329550;33;20198;-84
2021/01/13 05:40:18;;;;;;;7.93;1.90;;;;;;;;;;4391464;32;20158;-85
2021/01/13 05:42:46;;;;;;;7.37;1.20;;;;;;;;;;4377346;32;20170;-84
2021/01/13 05:45:12;;;;;;;7.60;1.57;;;;;;;;;;4377181;32;20170;-83
2021/01/13 05:48:17;;;;;;;10.10;1.80;;;;;;;;;;4376791;32;20515;-84
2021/01/13 05:50:42;;;;;;;10.53;1.80;;;;;;;;;;4372619;32;20205;-83
2021/01/13 05:53:15;;;;;;;8.70;2.30;;;;;;;;;;4378205;32;20202;-83
2021/01/13 05:55:47;;;;;;;6.60;1.50;;;;;;;;;;4379907;32;20230;-84
2021/01/13 05:58:20;;;;;;;8.07;1.30;;;;;;;;;;4379491;32;20230;-84
2021/01/13 06:00:45;;;;;;;8.30;3.53;;;;;;;;;;4394383;32;20177;-84
2021/01/13 06:03:40;;;;;;;9.67;1.63;;;;;;;;;;4393579;32;20151;-84
2021/01/13 06:06:31;;;;;;;;;;;;;;;;;;;;;
2021/01/13 06:09:00;;;;;;;10.00;1.53;;;;;;;;;;4393430;32;20212;-84
2021/01/13 06:11:39;;;;;;;9.53;1.73;;;;;;;;;;4378942;32;20725;-85
2021/01/13 06:14:07;;;;;;;9.60;1.93;;;;;;;;;;4379557;32;20166;-83
2021/01/13 06:16:32;;;;;;;8.07;1.47;;;;;;;;;;4393504;32;20133;-85
2021/01/13 06:19:06;;;;;;;9.30;1.10;;;;;;;;;;4379594;32;20203;-84
2021/01/13 06:21:32;;;;;;;9.77;1.47;;;;;;;;;;4379304;32;20158;-84
2021/01/13 06:24:11;;;;;;;7.40;1.53;;;;;;;;;;4379047;32;20158;-84
2021/01/13 06:26:52;;;;;;;8.73;1.40;;;;;;;;;;4392721;32;20192;-84
2021/01/13 06:30:08;;;;;;;11.10;1.30;;;;;;;;;;4379173;32;20219;-84
2021/01/13 06:35:41;;;;;;;7.80;1.63;;;;;;;;;;4356454;32;20177;-84
2021/01/13 06:38:15;;;;;;;11.50;1.53;;;;;;;;;;4378914;32;20158;-83
2021/01/13 06:40:44;;;;;;;5.87;1.40;;;;;;;;;;4378774;32;20170;-85
2021/01/13 06:43:15;;;;;;;8.37;1.60;;;;;;;;;;4392418;32;20168;-84
2021/01/13 06:45:43;;;;;;;7.77;1.50;;;;;;;;;;4378552;32;20596;-85
2021/01/13 06:48:08;;;;;;;8.27;1.73;;;;;;;;;;4392440;32;20173;-84
2021/01/13 06:50:34;;;;;;;7.23;1.30;;;;;;;;;;4378790;32;20233;-85
2021/01/13 06:53:00;;;;;;;7.63;1.30;;;;;;;;;;4378797;32;20283;-83
2021/01/13 06:55:35;;;;;;;6.43;1.27;;;;;;;;;;4392222;32;20599;-85
2021/01/13 06:58:08;;;;;;;6.80;1.17;;;;;;;;;;4379065;32;20575;-84
2021/01/13 07:00:34;;;;;;;7.60;1.40;;;;;;;;;;4378889;32;20324;-86
2021/01/13 07:03:25;;;;;;;6.80;1.47;;;;;;;;;;4378220;32;20546;-84
2021/01/13 07:05:54;;;;;;;5.40;1.40;;;;;;;;;;4392862;32;20127;-84
2021/01/13 07:08:23;;;;;;;7.13;2.00;;;;;;;;;;4393008;32;20450;-84
2021/01/13 07:11:02;;;;;;;9.40;1.40;;;;;;;;;;4392526;32;20138;-84
2021/01/13 07:13:28;;;;;;;8.40;1.63;;;;;;;;;;4379036;32;20509;-84
2021/01/13 07:15:59;;;;;;;9.33;1.40;;;;;;;;;;4379116;32;20666;-86
2021/01/13 07:18:28;;;;;;;8.90;1.40;;;;;;;;;;4379135;32;20166;-84
2021/01/13 07:20:54;;;;;;;9.97;1.63;;;;;;;;;;4392340;32;20138;-84
2021/01/13 07:23:23;;;;;;;13.50;1.60;;;;;;;;;;4377774;32;20166;-84
2021/01/13 07:25:49;;;;;;;7.67;1.20;;;;;;;;;;4378603;32;20189;-83
2021/01/13 07:28:23;;;;;;;4.90;1.27;;;;;;;;;;4378094;32;20162;-83
2021/01/13 07:30:51;;;;;;;9.47;1.50;;;;;;;;;;4392588;32;20195;-86
2021/01/13 07:33:18;;;;;;;8.27;1.67;;;;;;;;;;4378368;32;20159;-79
2021/01/13 07:35:48;;;;;;;8.10;1.43;;;;;;;;;;4377677;32;20174;-84
2021/01/13 07:38:15;;;;;;;6.27;1.30;;;;;;;;;;4381944;32;20526;-84
2021/01/13 07:41:06;;;;;;;7.53;1.13;;;;;;;;;;4380290;32;20162;-84
2021/01/13 07:43:50;;;;;;;8.20;1.33;;;;;;;;;;4342590;32;20634;-82
2021/01/13 07:46:22;;;;;;;8.70;1.50;;;;;;;;;;4378300;32;20163;-84
2021/01/13 07:49:08;;;;;;;7.17;1.40;;;;;;;;;;4392033;32;20142;-84
2021/01/13 07:51:33;;;;;;;6.27;1.53;;;;;;;;;;4367473;32;20640;-84
2021/01/13 07:54:06;;;;;;;8.33;1.50;;;;;;;;;;4391251;32;20184;-85
2021/01/13 07:56:34;;;;;;;8.47;1.63;;;;;;;;;;4392223;32;20510;-84
2021/01/13 07:59:19;;;;;;;10.77;1.50;;;;;;;;;;4378426;32;20162;-85
2021/01/13 08:01:48;;;;;;;7.10;1.40;;;;;;;;;;4378791;32;20169;-85
2021/01/13 08:04:28;;;;;;;8.07;1.37;;;;;;;;;;4392799;32;20203;-85
2021/01/13 08:06:56;;;;;;;12.10;1.40;;;;;;;;;;4378830;32;20191;-85
2021/01/13 08:12:08;;;;;;;6.40;1.53;;;;;;;;;;4391545;32;20172;-86
2021/01/13 08:15:05;;;;;;;9.57;1.40;;;;;;;;;;4376650;32;20166;-86
2021/01/13 08:18:01;;;;;;;6.90;1.33;;;;;;;;;;4376231;32;20595;-85
2021/01/13 08:20:57;;;;;;;7.23;1.70;;;;;;;;;;4377152;32;20201;-85
2021/01/13 08:27:04;;;;;;;8.03;1.60;;;;;;;;;;4390859;32;20257;-85
2021/01/13 08:29:57;;;;;;;7.13;1.70;;;;;;;;;;4383723;32;20224;-85
2021/01/13 08:32:29;;;;;;;4.37;1.33;;;;;;;;;;4389136;32;20196;-85
2021/01/13 08:35:22;;;;;;;6.27;1.33;;;;;;;;;;4389583;32;20230;-86
2021/01/13 08:38:04;;;;;;;6.03;1.67;;;;;;;;;;4390203;32;20293;-84
2021/01/13 08:40:31;;;;;;;6.93;1.33;;;;;;;;;;4381564;32;20220;-83
2021/01/13 08:43:04;;;;;;;8.27;1.87;;;;;;;;;;4377686;32;20252;-81
2021/01/13 08:45:41;;;;;;;6.30;1.30;;;;;;;;;;4401913;32;20201;-83
2021/01/13 08:48:13;;;;;;;8.40;1.60;;;;;;;;;;4405443;32;20204;-83
2021/01/13 08:50:39;;;;;;;8.17;1.60;;;;;;;;;;4405448;32;20249;-83
2021/01/13 08:53:07;;;;;;;7.50;1.43;;;;;;;;;;4391161;32;20595;-84
2021/01/13 08:55:42;;;;;;;8.63;1.30;;;;;;;;;;4405141;32;20199;-84
2021/01/13 08:58:08;;;;;;;6.10;1.60;;;;;;;;;;4405530;32;20134;-83
2021/01/13 09:00:34;;;;;;;8.53;1.40;;;;;;;;;;4404761;32;20130;-81
2021/01/13 09:03:00;;;;;;;6.97;1.87;;;;;;;;;;4390816;32;20166;-82
2021/01/13 09:05:35;;;;;;;7.50;1.93;;;;;;;;;;4404875;32;20129;-83
2021/01/13 09:08:13;;;;;;;7.57;1.37;;;;;;;;;;4405201;32;20145;-82
2021/01/13 09:10:52;;;;;;;7.77;1.53;;;;;;;;;;4392428;32;20158;-85
2021/01/13 09:13:34;;;;;;;4.53;1.50;;;;;;;;;;4392682;32;20168;-84
2021/01/13 09:16:18;;;;;;;5.50;1.40;;;;;;;;;;4393767;32;20192;-83
2021/01/13 09:18:45;;;;;;;8.60;1.40;;;;;;;;;;4408720;32;20161;-83
2021/01/13 09:21:11;;;;;;;7.53;1.30;;;;;;;;;;4408300;32;20588;-83
2021/01/13 09:23:46;;;;;;;6.73;1.43;;;;;;;;;;4404676;32;20165;-84
2021/01/13 09:26:22;;;;;;;7.40;1.30;;;;;;;;;;4391715;32;20633;-83
2021/01/13 09:28:56;;;;;;;7.10;1.47;;;;;;;;;;4404719;32;20189;-83
2021/01/13 09:31:39;;;;;;;5.93;1.60;;;;;;;;;;4394085;32;20219;-83
2021/01/13 09:34:08;;;;;;;5.87;1.80;;;;;;;;;;4407744;32;20464;-83
2021/01/13 09:36:52;;;;;;;5.43;1.63;;;;;;;;;;4407511;32;20479;-83
2021/01/13 09:39:20;;;;;;;14.10;2.17;;;;;;;;;;4407604;32;20138;-82
2021/01/13 09:41:57;;;;;;;5.60;2.00;;;;;;;;;;4394292;32;20166;-83
2021/01/13 09:44:34;;;;;;;7.90;1.50;;;;;;;;;;4394115;32;20486;-83
2021/01/13 09:46:59;;;;;;;7.97;1.73;;;;;;;;;;4393311;32;20231;-83
2021/01/13 09:49:39;;;;;;;10.37;2.60;;;;;;;;;;4407658;32;20150;-83
2021/01/13 09:52:11;;;;;;;7.53;1.60;;;;;;;;;;4375007;32;20186;-83
2021/01/13 09:55:08;;;;;;;4.57;1.10;;;;;;;;;;4360728;32;20221;-84
2021/01/13 09:57:50;;;;;;;8.80;1.47;;;;;;;;;;4360187;32;20232;-83
2021/01/13 10:00:35;;;;;;;8.83;1.60;;;;;;;;;;4362869;32;20228;-83
2021/01/13 10:03:08;;;;;;;9.83;1.80;;;;;;;;;;4362458;32;20189;-84
2021/01/13 10:05:33;;;;;;;8.63;1.67;;;;;;;;;;4360571;32;20180;-83
2021/01/13 10:08:02;;;;;;;7.47;1.30;;;;;;;;;;4347307;33;20599;-83
2021/01/13 10:10:30;;;;;;;8.33;1.60;;;;;;;;;;4359951;32;20177;-84
2021/01/13 10:15:54;;;;;;;9.27;2.30;;;;;;;;;;4351974;33;20163;-84
2021/01/13 10:18:41;;;;;;;;;;;;;;;;;;;;;
2021/01/13 10:21:13;;;;;;;7.00;1.90;;;;;;;;;;4359889;32;20144;-83
2021/01/13 10:23:45;;;;;;;15.17;2.10;;;;;;;;;;4369860;32;20638;-83
2021/01/13 10:26:15;;;;;;;7.97;1.70;;;;;;;;;;4391919;32;20169;-82
2021/01/13 10:28:44;;;;;;;9.13;1.53;;;;;;;;;;4377291;32;20506;-81
2021/01/13 10:31:10;;;;;;;8.70;1.50;;;;;;;;;;4391582;32;20154;-83
2021/01/13 10:33:57;;;;;;;4.77;1.67;;;;;;;;;;4391401;32;20189;-82
2021/01/13 10:36:29;;;;;;;6.23;1.37;;;;;;;;;;4377772;32;20225;-81
2021/01/13 10:38:58;;;;;;;6.30;1.60;;;;;;;;;;4377679;32;20614;-82
2021/01/13 10:41:31;;;;;;;8.50;1.70;;;;;;;;;;4377118;32;20170;-83
2021/01/13 10:43:59;;;;;;;6.77;2.00;;;;;;;;;;4392117;32;20178;-82
2021/01/13 10:46:27;;;;;;;8.77;1.60;;;;;;;;;;4377984;32;20189;-82
2021/01/13 10:48:55;;;;;;;5.30;1.70;;;;;;;;;;4391457;32;20490;-82
2021/01/13 10:51:34;;;;;;;7.63;1.63;;;;;;;;;;4406841;32;20146;-80
2021/01/13 10:54:03;;;;;;;7.70;1.50;;;;;;;;;;4378187;32;20197;-82
2021/01/13 10:56:31;;;;;;;9.53;1.73;;;;;;;;;;4377908;32;20188;-81
2021/01/13 10:59:01;;;;;;;5.23;1.60;;;;;;;;;;4390353;32;20645;-81
2021/01/13 11:01:29;;;;;;;8.77;1.47;;;;;;;;;;4377615;32;20202;-80
2021/01/13 11:03:55;;;;;;;3.57;1.30;;;;;;;;;;4396258;32;20150;-81
2021/01/13 11:06:24;;;;;;;7.93;1.73;;;;;;;;;;4392614;32;20200;-81
2021/01/13 11:08:59;;;;;;;10.17;1.50;;;;;;;;;;4391629;32;20520;-81
2021/01/13 11:11:24;;;;;;;8.53;2.00;;;;;;;;;;4392660;32;20177;-81
2021/01/13 11:14:09;;;;;;;;;;;;;;;;;;;;;
2021/01/13 11:16:35;;;;;;;5.70;1.30;;;;;;;;;;4388604;32;20169;-80
2021/01/13 11:19:17;;;;;;;;;;;;;;;;;;;;;
2021/01/13 11:21:55;;;;;;;6.77;1.23;;;;;;;;;;4389722;32;20142;-81
2021/01/13 11:24:50;;;;;;;7.78;1.50;;;;;;;;;;4375997;32;20231;-81
2021/01/13 11:27:24;;;;;;;7.53;1.33;;;;;;;;;;4375009;32;20660;-81
2021/01/13 11:30:02;;;;;;;4.00;0.90;;;;;;;;;;4388519;32;20212;-81
2021/01/13 11:32:57;;;;;;;6.97;1.45;;;;;;;;;;4389075;32;20150;-81
2021/01/13 11:35:28;;;;;;;6.37;1.48;;;;;;;;;;4376422;32;20276;-81
2021/01/13 11:38:16;;;;;;;5.45;1.58;;;;;;;;;;4376226;32;20614;-82
2021/01/13 11:41:15;;;;;;;7.55;1.50;;;;;;;;;;4388336;32;20188;-83
2021/01/13 11:43:59;;;;;;;7.53;1.55;;;;;;;;;;4388836;32;20242;-83
2021/01/13 11:46:46;;;;;;;4.07;1.50;;;;;;;;;;4391586;32;20236;-83
2021/01/13 11:49:14;;;;;;;6.07;1.40;;;;;;;;;;4392216;32;20205;-81
2021/01/13 11:51:57;;;;;;;;;;;;;;;;;;;;;
2021/01/13 11:54:45;;;;;;;6.15;1.73;;;;;;;;;;4402195;32;20146;-82
2021/01/13 11:57:21;;;;;;;6.60;1.83;;;;;;;;;;4392160;32;20170;-81
2021/01/13 11:59:46;;;;;;;8.23;2.00;;;;;;;;;;4391968;32;20277;-83
2021/01/13 12:02:35;;;;;;;7.65;1.50;;;;;;;;;;4391735;32;20199;-83
2021/01/13 12:05:31;;;;;;;6.87;2.00;;;;;;;;;;4378679;32;20629;-82
2021/01/13 12:08:10;;;;;;;5.78;1.67;;;;;;;;;;4387857;32;20247;-82
2021/01/13 12:10:40;;;;;;;6.68;1.60;;;;;;;;;;4392143;32;20161;-81
2021/01/13 12:13:09;;;;;;;4.97;1.62;;;;;;;;;;4392143;32;20169;-81
2021/01/13 12:15:50;;;;;;;7.97;1.85;;;;;;;;;;4391607;32;20598;-82
2021/01/13 12:18:22;;;;;;;12.05;1.75;;;;;;;;;;4391353;32;20146;-83
2021/01/13 12:20:57;;;;;;;10.10;2.12;;;;;;;;;;4392059;32;20154;-82
2021/01/13 12:23:38;;;;;;;7.07;1.70;;;;;;;;;;4391740;32;20180;-83
2021/01/13 12:26:14;;;;;;;7.80;1.62;;;;;;;;;;4382245;32;20166;-83
2021/01/13 12:28:52;;;;;;;;;;;;;;;;;;;;;
2021/01/13 12:31:20;;;;;;;9.57;2.03;;;;;;;;;;4417967;32;20157;-82
2021/01/13 12:34:15;;;;;;;9.65;1.80;;;;;;;;;;4406721;32;20207;-82
2021/01/13 12:37:01;;;;;;;;;;;;;;;;;;;;;
2021/01/13 12:39:35;;;;;;;10.38;2.25;;;;;;;;;;4420332;32;20162;-82
2021/01/13 12:42:04;;;;;;;2.95;1.15;;;;;;;;;;4406769;32;20154;-82
2021/01/13 12:44:33;;;;;;;5.82;1.73;;;;;;;;;;4420597;32;20172;-82
2021/01/13 12:50:12;;;;;;;4.90;1.27;;;;;;;;;;4343412;33;20194;-82
2021/01/13 12:56:21;;;;;;;9.52;1.40;;;;;;;;;;4358176;32;20258;-81
2021/01/13 12:58:59;;;;;;;8.70;1.65;;;;;;;;;;4373037;32;20216;-84
2021/01/13 13:01:44;;;;;;;10.50;1.37;;;;;;;;;;4360688;32;20220;-83
2021/01/13 13:04:29;;;;;;;;;;;;;;;;;;;;;
2021/01/13 13:06:54;;;;;;;6.20;1.98;;;;;;;;;;4407783;32;20180;-82
2021/01/13 13:09:48;;;;;;;8.15;1.70;;;;;;;;;;4406321;32;20161;-82
2021/01/13 13:12:26;;;;;;;7.40;1.73;;;;;;;;;;4406084;32;20173;-82
2021/01/13 13:15:01;;;;;;;11.30;1.73;;;;;;;;;;4404665;32;20177;-82
2021/01/13 13:17:27;;;;;;;9.00;1.98;;;;;;;;;;4404709;32;20197;-83
2021/01/13 13:22:49;;;;;;;9.35;1.92;;;;;;;;;;4353855;32;20611;-82
2021/01/13 13:25:24;;;;;;;7.30;1.55;;;;;;;;;;4381776;32;20221;-82
2021/01/13 13:31:01;;;;;;;11.40;1.70;;;;;;;;;;4372798;32;20603;-82
2021/01/13 13:33:44;;;;;;;10.48;1.83;;;;;;;;;;4390212;32;20166;-82
2021/01/13 13:36:21;;;;;;;12.77;1.90;;;;;;;;;;4401044;32;20213;-82
2021/01/13 13:38:58;;;;;;;8.32;1.50;;;;;;;;;;4394676;32;20181;-83
2021/01/13 13:41:38;;;;;;;7.30;1.92;;;;;;;;;;4392715;32;20146;-82
2021/01/13 13:44:06;;;;;;;8.07;1.57;;;;;;;;;;4388509;32;20524;-82
2021/01/13 13:47:08;;;;;;;8.17;1.90;;;;;;;;;;4376306;32;20162;-82
2021/01/13 13:50:03;;;;;;;15.53;1.97;;;;;;;;;;4385604;32;20275;-82
2021/01/13 13:52:40;;;;;;;8.07;1.60;;;;;;;;;;4385238;32;20471;-82
2021/01/13 13:55:41;;;;;;;;;;;;;;;;;;;;;
2021/01/13 13:58:28;;;;;;;7.30;1.57;;;;;;;;;;4388948;32;20193;-82
2021/01/13 14:01:20;;;;;;;5.43;1.40;;;;;;;;;;4383848;32;20193;-82
2021/01/13 14:04:04;;;;;;;7.70;1.57;;;;;;;;;;4389132;32;20629;-83
2021/01/13 14:06:33;;;;;;;5.20;1.60;;;;;;;;;;4388774;32;20163;-82
2021/01/13 14:09:14;;;;;;;9.03;1.50;;;;;;;;;;4388843;32;20177;-82
2021/01/13 14:11:48;;;;;;;9.00;1.50;;;;;;;;;;4403914;32;20279;-82
2021/01/13 14:14:23;;;;;;;12.53;2.43;;;;;;;;;;4404742;32;20542;-82
2021/01/13 14:17:24;;;;;;;7.53;1.53;;;;;;;;;;4407314;32;20168;-82
2021/01/13 14:20:01;;;;;;;9.03;1.90;;;;;;;;;;4405867;32;20180;-83
2021/01/13 14:22:46;;;;;;;7.40;1.50;;;;;;;;;;4406823;32;20261;-82
2021/01/13 14:28:32;;;;;;;7.10;1.60;;;;;;;;;;4374825;32;20208;-82
2021/01/13 14:31:17;;;;;;;8.37;1.50;;;;;;;;;;4404792;32;20193;-83
2021/01/13 14:33:49;;;;;;;10.80;1.50;;;;;;;;;;4406141;32;20169;-82
2021/01/13 14:36:56;;;;;;;5.90;1.80;;;;;;;;;;4389407;32;20528;-82
2021/01/13 14:39:47;;;;;;;8.30;1.90;;;;;;;;;;4390499;32;20142;-82
2021/01/13 14:45:25;;;;;;;8.23;1.37;;;;;;;;;;4315514;33;20261;-82
2021/01/13 14:48:01;;;;;;;8.80;1.57;;;;;;;;;;4309785;33;20164;-83
2021/01/13 14:50:30;;;;;;;7.57;2.10;;;;;;;;;;4303443;33;20263;-82
2021/01/13 14:59:41;;;;;;;9.27;1.60;;;;;;;;;;4258177;33;20193;-82
2021/01/13 15:05:44;;;;;;;;;;;;;;;;;;;;;
2021/01/13 15:11:50;;;;;;;5.07;1.30;;;;;;;;;;4329459;33;20214;-83
2021/01/13 15:14:31;;;;;;;8.10;1.77;;;;;;;;;;4334660;32;20207;-82
2021/01/13 15:23:27;;;;;;;8.33;1.80;;;;;;;;;;4388458;32;20163;-83
2021/01/13 15:26:24;;;;;;;5.93;1.43;;;;;;;;;;4403324;32;20191;-83
2021/01/13 15:29:14;;;;;;;9.00;1.77;;;;;;;;;;4341656;33;20167;-84
2021/01/13 15:31:42;;;;;;;9.67;1.83;;;;;;;;;;4359113;32;20168;-82
2021/01/13 15:34:10;;;;;;;10.40;1.90;;;;;;;;;;4402860;32;20267;-83
2021/01/13 15:36:52;;;;;;;7.77;1.70;;;;;;;;;;4404818;32;20170;-83
2021/01/13 15:39:44;;;;;;;10.63;2.10;;;;;;;;;;4405368;32;20162;-84
2021/01/13 15:42:39;;;;;;;14.93;2.70;;;;;;;;;;4402824;32;20166;-82
2021/01/13 15:45:38;;;;;;;;;;;;;;;;;;;;;
2021/01/13 15:51:17;;;;;;;12.10;1.87;;;;;;;;;;4343713;33;20177;-82
2021/01/13 15:53:45;;;;;;;13.27;2.23;;;;;;;;;;4358996;32;20217;-82
2021/01/13 15:56:17;;;;;;;9.07;2.20;;;;;;;;;;4358264;32;20167;-83
2021/01/13 16:05:02;;;;;;;8.27;1.90;;;;;;;;;;4348609;33;20173;-82
2021/01/13 16:10:42;;;;;;;10.63;2.43;;;;;;;;;;4385581;32;20185;-82
2021/01/13 16:13:07;;;;;;;9.43;2.10;;;;;;;;;;4388368;32;20676;-83
2021/01/13 16:15:33;;;;;;;10.87;2.00;;;;;;;;;;4388420;32;20174;-84
2021/01/13 16:18:01;;;;;;;7.73;2.30;;;;;;;;;;4387627;32;20657;-84
2021/01/13 16:20:28;;;;;;;6.20;2.20;;;;;;;;;;4388211;32;20243;-84
2021/01/13 16:22:56;;;;;;;9.93;2.30;;;;;;;;;;4388306;32;20178;-84
2021/01/13 16:25:47;;;;;;;12.67;2.50;;;;;;;;;;4387947;32;20174;-84
2021/01/13 16:28:12;;;;;;;11.90;2.50;;;;;;;;;;4380278;32;20205;-84
2021/01/13 16:30:39;;;;;;;10.47;2.10;;;;;;;;;;4391564;32;20488;-84
2021/01/13 16:33:36;;;;;;;12.40;2.50;;;;;;;;;;4391925;32;20200;-84
2021/01/13 16:36:02;;;;;;;6.53;2.17;;;;;;;;;;4391938;32;20226;-83
2021/01/13 16:38:28;;;;;;;10.90;2.90;;;;;;;;;;4390897;32;20170;-84
2021/01/13 16:40:54;;;;;;;10.57;2.20;;;;;;;;;;4391814;32;20213;-84
2021/01/13 16:43:21;;;;;;;18.27;2.50;;;;;;;;;;4379412;32;20289;-84
2021/01/13 16:45:47;;;;;;;13.13;2.60;;;;;;;;;;4378827;32;20194;-83
2021/01/13 16:48:13;;;;;;;11.37;2.50;;;;;;;;;;4379090;32;20162;-84
2021/01/13 16:50:41;;;;;;;5.47;2.23;;;;;;;;;;4391396;32;20184;-85
2021/01/13 16:53:16;;;;;;;8.80;2.43;;;;;;;;;;4391218;32;20655;-84
2021/01/13 16:55:42;;;;;;;15.07;3.07;;;;;;;;;;4391322;32;20639;-84
2021/01/13 16:58:15;;;;;;;15.00;3.23;;;;;;;;;;4391304;32;20166;-84
2021/01/13 17:00:42;;;;;;;13.73;2.93;;;;;;;;;;4391845;32;20635;-84
2021/01/13 17:03:19;;;;;;;11.10;2.50;;;;;;;;;;4391624;32;20200;-85
2021/01/13 17:05:46;;;;;;;13.57;2.23;;;;;;;;;;4391863;32;20215;-83
2021/01/13 17:10:59;;;;;;;8.50;2.00;;;;;;;;;;4392123;32;20194;-85
2021/01/13 17:16:48;;;;;;;;;;;;;;;;;;;;;
2021/01/13 17:25:24;;;;;;;10.47;2.77;;;;;;;;;;4375471;32;20177;-84